createdAt,value
2023-05-19T00:06:43.937Z,958.1996
2023-05-19T00:09:47.280Z,958.1913
2023-05-19T00:10:48.853Z,958.1873
2023-05-19T00:11:50.668Z,958.1750
2023-05-19T00:12:53.857Z,958.1772
2023-05-19T00:13:52.645Z,958.1666
2023-05-19T00:14:53.837Z,958.1582
2023-05-19T00:15:55.048Z,958.1605
2023-05-19T00:16:56.297Z,958.1495
2023-05-19T00:17:58.302Z,958.1432
2023-05-19T00:18:59.609Z,958.1246
2023-05-19T00:20:01.010Z,958.1213
2023-05-19T00:21:02.224Z,958.1109
2023-05-19T00:28:12.801Z,958.0295
2023-05-19T00:29:14.369Z,958.0300
2023-05-19T00:30:16.230Z,958.0255
2023-05-19T00:32:19.615Z,958.0269
2023-05-19T00:33:20.850Z,958.0204
2023-05-19T00:34:22.341Z,958.0269
2023-05-19T00:36:24.844Z,958.0123
2023-05-19T00:37:26.277Z,958.0018
2023-05-19T00:39:29.468Z,957.9882
2023-05-19T00:40:30.908Z,957.9759
2023-05-19T00:42:33.451Z,957.9518
2023-05-19T00:43:34.673Z,957.9354
2023-05-19T00:44:36.443Z,957.9177
2023-05-19T00:45:37.855Z,957.9131
2023-05-19T00:46:40.660Z,957.9118
2023-05-19T00:47:42.737Z,957.9071
2023-05-19T00:48:42.767Z,957.9062
2023-05-19T00:49:44.691Z,957.8973
2023-05-19T00:50:46.232Z,957.8938
2023-05-19T00:51:48.359Z,957.8859
2023-05-19T00:52:49.631Z,957.8746
2023-05-19T00:53:51.524Z,957.8741
2023-05-19T00:54:53.501Z,957.8577
2023-05-19T00:56:55.854Z,957.8273
2023-05-19T00:57:57.130Z,957.8282
2023-05-19T00:58:58.635Z,957.8141
2023-05-19T01:00:00.515Z,957.8032
2023-05-19T01:01:01.760Z,957.7996
2023-05-19T01:02:03.010Z,957.8004
2023-05-19T01:03:04.306Z,957.7850
2023-05-19T01:04:06.321Z,957.7877
2023-05-19T01:05:08.575Z,957.7755
2023-05-19T01:07:11.899Z,957.7654
2023-05-19T01:08:14.257Z,957.7637
2023-05-19T01:09:15.611Z,957.7550
2023-05-19T01:10:17.054Z,957.7413
2023-05-19T01:11:18.993Z,957.7491
2023-05-19T01:12:21.127Z,957.7432
2023-05-19T01:13:22.527Z,957.7450
2023-05-19T01:14:24.766Z,957.7496
2023-05-19T01:15:26.662Z,957.7396
2023-05-19T01:16:28.841Z,957.7413
2023-05-19T01:17:30.440Z,957.7336
2023-05-19T01:19:33.657Z,957.7281
2023-05-19T01:20:37.287Z,957.7309
2023-05-19T01:26:44.877Z,957.7823
2023-05-19T01:27:47.389Z,957.7868
2023-05-19T01:28:48.798Z,957.7918
2023-05-19T01:30:52.439Z,957.7791
2023-05-19T01:31:54.579Z,957.7778
2023-05-19T01:32:57.112Z,957.7968
2023-05-19T01:33:58.345Z,957.7955
2023-05-19T01:35:00.281Z,957.8127
2023-05-19T01:36:02.204Z,957.8168
2023-05-19T01:37:03.474Z,957.8073
2023-05-19T01:38:05.619Z,957.7963
2023-05-19T01:39:06.855Z,957.8054
2023-05-19T01:40:08.075Z,957.7864
2023-05-19T01:41:09.302Z,957.8000
2023-05-19T01:42:10.612Z,957.7877
2023-05-19T01:43:11.953Z,957.7759
2023-05-19T01:46:15.559Z,957.7845
2023-05-19T01:47:16.812Z,957.7786
2023-05-19T01:48:18.064Z,957.7791
2023-05-19T01:49:19.478Z,957.7787
2023-05-19T01:51:22.362Z,957.7654
2023-05-19T01:52:24.730Z,957.7596
2023-05-19T01:54:27.189Z,957.7914
2023-05-19T01:55:28.598Z,957.7927
2023-05-19T01:56:30.004Z,957.8036
2023-05-19T01:57:31.254Z,957.8036
2023-05-19T01:58:32.671Z,957.7941
2023-05-19T01:59:34.103Z,957.7941
2023-05-19T02:00:36.562Z,957.7864
2023-05-19T02:01:38.508Z,957.8054
2023-05-19T02:02:39.964Z,957.8091
2023-05-19T02:04:43.168Z,957.8204
2023-05-19T02:05:45.904Z,957.8150
2023-05-19T02:06:47.347Z,957.8096
2023-05-19T02:07:49.534Z,957.8036
2023-05-19T02:08:51.866Z,957.7936
2023-05-19T02:09:53.134Z,957.7914
2023-05-19T02:11:56.866Z,957.7850
2023-05-19T02:12:58.841Z,957.7695
2023-05-19T02:14:00.334Z,957.7700
2023-05-19T02:15:02.313Z,957.7582
2023-05-19T02:16:03.577Z,957.7587
2023-05-19T02:17:05.250Z,957.7614
2023-05-19T02:18:06.704Z,957.7609
2023-05-19T02:19:08.584Z,957.7459
2023-05-19T02:20:10.005Z,957.7454
2023-05-19T02:21:13.203Z,957.7477
2023-05-19T02:22:12.382Z,957.7400
2023-05-19T02:23:14.054Z,957.7432
2023-05-19T02:24:15.456Z,957.7386
2023-05-19T02:25:16.900Z,957.7222
2023-05-19T02:26:18.128Z,957.7100
2023-05-19T02:27:19.564Z,957.7037
2023-05-19T02:28:21.589Z,957.6854
2023-05-19T02:30:24.739Z,957.6605
2023-05-19T02:31:27.605Z,957.6423
2023-05-19T02:32:29.865Z,957.6223
2023-05-19T02:33:31.076Z,957.6086
2023-05-19T02:34:33.121Z,957.6018
2023-05-19T02:35:35.073Z,957.5986
2023-05-19T02:36:36.849Z,957.5854
2023-05-19T02:37:38.163Z,957.5700
2023-05-19T02:38:40.887Z,957.5759
2023-05-19T02:39:42.879Z,957.5587
2023-05-19T02:40:44.189Z,957.5472
2023-05-19T02:41:45.920Z,957.5373
2023-05-19T02:42:47.312Z,957.5191
2023-05-19T02:43:48.554Z,957.5241
2023-05-19T02:44:49.826Z,957.5146
2023-05-19T02:45:51.072Z,957.5137
2023-05-19T02:46:52.378Z,957.5137
2023-05-19T02:47:53.617Z,957.5123
2023-05-19T02:48:55.507Z,957.5054
2023-05-19T02:50:10.007Z,957.4982
2023-05-19T02:50:58.013Z,957.5153
2023-05-19T02:52:00.002Z,957.5082
2023-05-19T02:53:01.324Z,957.5204
2023-05-19T02:54:03.213Z,957.5223
2023-05-19T02:55:05.098Z,957.5355
2023-05-19T02:56:07.194Z,957.5300
2023-05-19T02:57:09.023Z,957.5409
2023-05-19T02:58:10.271Z,957.5418
2023-05-19T02:59:12.246Z,957.5314
2023-05-19T03:00:14.122Z,957.5436
2023-05-19T03:01:16.092Z,957.5391
2023-05-19T03:02:17.311Z,957.5459
2023-05-19T03:03:19.276Z,957.5427
2023-05-19T03:04:21.262Z,957.5391
2023-05-19T03:05:23.407Z,957.5318
2023-05-19T03:07:26.700Z,957.5063
2023-05-19T03:08:28.758Z,957.4904
2023-05-19T03:09:30.031Z,957.4872
2023-05-19T03:10:31.696Z,957.4809
2023-05-19T03:12:34.427Z,957.4591
2023-05-19T03:14:36.981Z,957.4528
2023-05-19T03:15:39.242Z,957.4582
2023-05-19T03:16:40.591Z,957.4582
2023-05-19T03:17:42.037Z,957.4578
2023-05-19T03:18:43.418Z,957.4591
2023-05-19T03:19:44.586Z,957.4504
2023-05-19T03:20:46.333Z,957.4446
2023-05-19T03:21:48.466Z,957.4404
2023-05-19T03:22:49.868Z,957.4346
2023-05-19T03:23:51.091Z,957.4363
2023-05-19T03:24:52.293Z,957.4382
2023-05-19T03:26:55.268Z,957.4313
2023-05-19T03:27:57.682Z,957.4268
2023-05-19T03:28:58.871Z,957.4282
2023-05-19T03:30:00.794Z,957.4246
2023-05-19T03:31:02.901Z,957.4164
2023-05-19T03:32:04.676Z,957.4172
2023-05-19T03:33:06.088Z,957.4182
2023-05-19T03:34:08.086Z,957.4068
2023-05-19T03:35:09.279Z,957.4141
2023-05-19T03:36:10.506Z,957.4168
2023-05-19T03:37:12.297Z,957.4095
2023-05-19T03:38:14.198Z,957.4250
2023-05-19T03:39:15.434Z,957.4300
2023-05-19T03:40:16.633Z,957.4418
2023-05-19T03:41:18.558Z,957.4891
2023-05-19T03:42:20.440Z,957.5027
2023-05-19T03:44:23.354Z,957.5800
2023-05-19T03:45:25.151Z,957.5886
2023-05-19T03:46:27.016Z,957.6168
2023-05-19T03:47:28.495Z,957.6291
2023-05-19T03:48:30.626Z,957.6409
2023-05-19T03:49:32.645Z,957.6564
2023-05-19T03:50:34.125Z,957.6514
2023-05-19T03:51:36.037Z,957.6527
2023-05-19T03:52:37.889Z,957.6364
2023-05-19T03:53:39.124Z,957.6359
2023-05-19T03:55:42.036Z,957.6209
2023-05-19T03:56:43.927Z,957.6213
2023-05-19T03:58:46.799Z,957.6300
2023-05-19T03:59:48.643Z,957.6337
2023-05-19T04:00:49.855Z,957.6241
2023-05-19T04:01:51.776Z,957.6163
2023-05-19T04:02:53.689Z,957.6227
2023-05-19T04:03:55.014Z,957.6146
2023-05-19T04:04:57.004Z,957.6132
2023-05-19T04:05:58.213Z,957.6172
2023-05-19T04:06:59.475Z,957.6282
2023-05-19T04:08:01.409Z,957.6350
2023-05-19T04:09:03.262Z,957.6432
2023-05-19T04:10:04.496Z,957.6532
2023-05-19T04:11:05.846Z,957.6622
2023-05-19T04:12:07.661Z,957.6622
2023-05-19T04:13:08.924Z,957.6609
2023-05-19T04:15:11.212Z,957.6631
2023-05-19T04:16:12.428Z,957.6677
2023-05-19T04:17:13.633Z,957.6532
2023-05-19T04:19:16.329Z,957.6532
2023-05-19T04:20:17.607Z,957.6646
2023-05-19T04:21:19.732Z,957.6741
2023-05-19T04:23:22.727Z,957.7014
2023-05-19T04:24:24.922Z,957.7150
2023-05-19T04:25:26.105Z,957.7200
2023-05-19T04:27:29.065Z,957.7368
2023-05-19T04:28:30.265Z,957.7400
2023-05-19T04:29:31.451Z,957.7372
2023-05-19T04:30:33.432Z,957.7422
2023-05-19T04:31:35.507Z,957.7396
2023-05-19T04:32:37.473Z,957.7263
2023-05-19T04:33:38.869Z,957.7259
2023-05-19T04:34:40.935Z,957.7309
2023-05-19T04:35:42.769Z,957.7296
2023-05-19T04:36:43.980Z,957.7396
2023-05-19T04:37:45.358Z,957.7473
2023-05-19T04:38:47.153Z,957.7700
2023-05-19T04:39:48.411Z,957.7814
2023-05-19T04:40:49.577Z,957.7791
2023-05-19T04:41:50.793Z,957.7832
2023-05-19T04:42:52.042Z,957.7845
2023-05-19T04:43:53.231Z,957.7900
2023-05-19T04:44:55.092Z,957.8123
2023-05-19T04:45:56.912Z,957.8196
2023-05-19T04:46:58.767Z,957.8254
2023-05-19T04:48:00.238Z,957.8300
2023-05-19T04:49:02.403Z,957.8387
2023-05-19T04:50:04.325Z,957.8473
2023-05-19T04:51:06.278Z,957.8518
2023-05-19T04:52:07.500Z,957.8596
2023-05-19T04:53:08.783Z,957.8518
2023-05-19T04:54:10.737Z,957.8591
2023-05-19T04:55:11.926Z,957.8768
2023-05-19T04:56:13.166Z,957.8978
2023-05-19T04:57:15.066Z,957.8969
2023-05-19T04:58:16.262Z,957.9059
2023-05-19T04:59:17.451Z,957.9186
2023-05-19T05:00:18.708Z,957.9291
2023-05-19T05:01:20.576Z,957.9377
2023-05-19T05:02:22.617Z,957.9500
2023-05-19T05:03:24.665Z,957.9391
2023-05-19T05:04:25.917Z,957.9504
2023-05-19T05:05:27.818Z,957.9518
2023-05-19T05:06:29.788Z,957.9668
2023-05-19T05:07:32.232Z,957.9677
2023-05-19T05:13:39.303Z,957.9805
2023-05-19T05:14:40.541Z,957.9786
2023-05-19T05:15:41.778Z,957.9614
2023-05-19T05:16:43.064Z,957.9354
2023-05-19T05:17:44.671Z,957.9427
2023-05-19T05:18:46.489Z,957.9332
2023-05-19T05:19:48.381Z,957.9446
2023-05-19T05:20:49.597Z,957.9377
2023-05-19T05:21:52.336Z,957.9413
2023-05-19T05:24:53.971Z,957.9377
2023-05-19T05:25:55.863Z,957.9387
2023-05-19T05:26:57.133Z,957.9159
2023-05-19T05:27:59.053Z,957.9122
2023-05-19T05:31:02.377Z,957.8732
2023-05-19T05:35:06.844Z,957.8505
2023-05-19T05:36:08.033Z,957.8477
2023-05-19T05:37:09.265Z,957.8378
2023-05-19T05:38:11.416Z,957.8336
2023-05-19T05:39:12.790Z,957.8427
2023-05-19T05:40:14.776Z,957.8386
2023-05-19T05:41:16.055Z,957.8464
2023-05-19T05:42:17.383Z,957.8409
2023-05-19T05:43:18.623Z,957.8518
2023-05-19T05:44:19.866Z,957.8405
2023-05-19T05:45:21.145Z,957.8482
2023-05-19T05:46:22.503Z,957.8509
2023-05-19T05:47:23.745Z,957.8627
2023-05-19T05:48:25.007Z,957.8777
2023-05-19T05:49:26.251Z,957.8787
2023-05-19T05:50:29.086Z,957.8887
2023-05-19T05:51:30.343Z,957.8823
2023-05-19T05:52:32.167Z,957.8741
2023-05-19T05:53:33.437Z,957.8659
2023-05-19T05:54:34.695Z,957.8582
2023-05-19T05:55:36.531Z,957.8641
2023-05-19T05:56:37.808Z,957.8368
2023-05-19T05:57:39.080Z,957.8414
2023-05-19T05:58:40.967Z,957.8791
2023-05-19T05:59:42.833Z,957.8796
2023-05-19T06:00:44.735Z,957.8777
2023-05-19T06:01:46.848Z,957.9000
2023-05-19T06:02:48.904Z,957.9050
2023-05-19T06:03:50.238Z,957.8823
2023-05-19T06:05:53.621Z,957.8773
2023-05-19T06:06:54.919Z,957.8768
2023-05-19T06:07:56.198Z,957.9073
2023-05-19T06:08:57.506Z,957.8918
2023-05-19T06:10:00.012Z,957.9545
2023-05-19T06:11:01.271Z,957.9391
2023-05-19T06:13:04.755Z,957.9382
2023-05-19T06:14:06.668Z,957.9186
2023-05-19T06:15:07.933Z,957.9150
2023-05-19T06:16:10.396Z,957.8973
2023-05-19T06:17:12.754Z,957.9313
2023-05-19T06:18:14.087Z,957.9313
2023-05-19T06:19:15.401Z,957.9373
2023-05-19T06:21:18.295Z,957.9591
2023-05-19T06:22:19.535Z,957.9432
2023-05-19T06:24:21.861Z,957.9291
2023-05-19T06:25:23.148Z,957.9246
2023-05-19T06:26:24.454Z,957.9118
2023-05-19T06:27:25.691Z,957.9055
2023-05-19T06:28:28.125Z,957.9082
2023-05-19T06:29:29.399Z,957.9241
2023-05-19T06:30:31.586Z,957.9123
2023-05-19T06:31:34.022Z,957.9068
2023-05-19T06:32:35.880Z,957.8936
2023-05-19T06:33:37.162Z,957.9073
2023-05-19T06:34:39.091Z,957.9241
2023-05-19T06:35:41.038Z,957.9413
2023-05-19T06:36:42.420Z,957.9623
2023-05-19T06:37:45.331Z,958.0018
2023-05-19T06:45:52.851Z,957.9896
2023-05-19T06:46:54.146Z,957.9968
2023-05-19T06:47:55.539Z,957.9987
2023-05-19T06:50:59.768Z,958.0637
2023-05-19T06:53:03.579Z,958.0850
2023-05-19T06:54:04.950Z,958.0764
2023-05-19T06:55:06.519Z,958.0732
2023-05-19T06:56:07.869Z,958.0709
2023-05-19T06:57:33.224Z,958.0568
2023-05-19T07:01:14.600Z,958.0909
2023-05-19T07:02:16.648Z,958.1118
2023-05-19T07:03:19.126Z,958.1163
2023-05-19T07:04:20.448Z,958.1155
2023-05-19T07:05:21.682Z,958.0941
2023-05-19T07:06:23.698Z,958.0850
2023-05-19T07:07:25.513Z,958.0950
2023-05-19T07:08:26.821Z,958.1009
2023-05-19T07:09:28.100Z,958.1146
2023-05-19T07:10:30.075Z,958.1182
2023-05-19T07:11:31.373Z,958.1182
2023-05-19T07:12:33.679Z,958.1168
2023-05-19T07:13:34.945Z,958.1213
2023-05-19T07:14:36.957Z,958.1182
2023-05-19T07:15:38.191Z,958.1459
2023-05-19T07:16:39.429Z,958.1536
2023-05-19T07:18:42.648Z,958.1614
2023-05-19T07:19:44.709Z,958.1300
2023-05-19T07:20:46.015Z,958.1296
2023-05-19T07:22:49.026Z,958.1132
2023-05-19T07:23:51.001Z,958.1050
2023-05-19T07:24:52.280Z,958.1172
2023-05-19T07:25:54.269Z,958.1005
2023-05-19T07:26:56.906Z,958.0918
2023-05-19T07:27:59.243Z,958.0668
2023-05-19T07:29:12.214Z,958.0550
2023-05-19T07:30:02.199Z,958.0484
2023-05-19T07:31:03.440Z,958.0277
2023-05-19T07:32:04.737Z,958.0150
2023-05-19T07:33:06.089Z,957.9900
2023-05-19T07:34:07.353Z,957.9946
2023-05-19T07:35:08.622Z,958.0068
2023-05-19T07:36:09.876Z,958.0241
2023-05-19T07:37:11.150Z,958.0377
2023-05-19T07:38:12.472Z,958.0350
2023-05-19T07:43:18.227Z,958.0600
2023-05-19T07:44:19.525Z,958.0314
2023-05-19T07:46:21.943Z,958.0241
2023-05-19T07:47:23.768Z,958.0319
2023-05-19T07:49:26.741Z,958.0041
2023-05-19T07:50:28.808Z,958.0087
2023-05-19T07:51:30.725Z,958.0204
2023-05-19T07:52:31.986Z,958.0522
2023-05-19T07:53:34.001Z,958.0809
2023-05-19T07:54:35.353Z,958.0977
2023-05-19T07:55:36.605Z,958.1091
2023-05-19T07:56:37.872Z,958.1000
2023-05-19T07:57:39.822Z,958.0704
2023-05-19T07:58:41.761Z,958.0778
2023-05-19T07:59:42.993Z,958.1163
2023-05-19T08:00:45.208Z,958.1196
2023-05-19T08:01:47.047Z,958.1113
2023-05-19T08:02:49.451Z,958.1273
2023-05-19T08:04:52.951Z,958.1118
2023-05-19T08:05:54.936Z,958.0964
2023-05-19T08:06:56.220Z,958.0814
2023-05-19T08:07:57.504Z,958.0864
2023-05-19T08:08:59.334Z,958.0604
2023-05-19T08:10:00.605Z,958.0541
2023-05-19T08:11:01.943Z,958.0446
2023-05-19T08:12:03.230Z,958.0282
2023-05-19T08:13:07.040Z,958.0164
2023-05-19T08:16:09.281Z,958.0273
2023-05-19T08:17:11.121Z,958.0323
2023-05-19T08:18:13.021Z,958.0236
2023-05-19T08:19:14.367Z,958.0164
2023-05-19T08:20:16.285Z,958.0159
2023-05-19T08:21:18.400Z,958.0068
2023-05-19T08:22:20.325Z,957.9896
2023-05-19T08:23:22.250Z,957.9872
2023-05-19T08:24:25.313Z,957.9854
2023-05-19T08:25:24.462Z,957.9728
2023-05-19T08:26:26.324Z,957.9573
2023-05-19T08:27:31.079Z,957.9341
2023-05-19T08:40:43.462Z,957.8132
2023-05-19T08:41:44.805Z,957.7996
2023-05-19T08:45:01.321Z,957.8359
2023-05-19T08:45:48.796Z,957.8359
2023-05-19T08:46:50.129Z,957.8196
2023-05-19T08:47:51.505Z,957.8150
2023-05-19T08:48:52.830Z,957.7909
2023-05-19T08:49:54.132Z,957.7600
2023-05-19T08:50:55.413Z,957.7568
2023-05-19T08:51:56.695Z,957.7513
2023-05-19T08:52:57.995Z,957.7545
2023-05-19T08:53:59.207Z,957.7609
2023-05-19T08:55:00.490Z,957.7732
2023-05-19T08:56:01.770Z,957.7927
2023-05-19T08:57:03.152Z,957.7732
2023-05-19T08:58:04.454Z,957.7832
2023-05-19T08:59:05.735Z,957.7936
2023-05-19T09:00:07.044Z,957.7563
2023-05-19T09:01:08.390Z,957.7545
2023-05-19T09:02:09.629Z,957.7363
2023-05-19T09:03:18.105Z,957.7195
2023-05-19T09:04:12.921Z,957.7235
2023-05-19T09:05:14.284Z,957.7236
2023-05-19T09:06:15.582Z,957.7277
2023-05-19T09:07:16.911Z,957.7509
2023-05-19T09:08:18.253Z,957.7650
2023-05-19T09:09:19.796Z,957.7873
2023-05-19T09:10:21.134Z,957.8050
2023-05-19T09:11:22.584Z,957.8063
2023-05-19T09:12:23.962Z,957.8054
2023-05-19T09:14:26.494Z,957.7873
2023-05-19T09:15:27.778Z,957.7664
2023-05-19T09:16:30.184Z,957.7700
2023-05-19T09:17:31.759Z,957.7714
2023-05-19T09:18:33.106Z,957.7509
2023-05-19T09:19:34.493Z,957.7600
2023-05-19T09:20:35.835Z,957.7700
2023-05-19T09:21:37.140Z,957.7728
2023-05-19T09:22:38.454Z,957.7728
2023-05-19T09:23:39.779Z,957.8022
2023-05-19T09:25:42.211Z,957.7891
2023-05-19T09:26:43.513Z,957.8150
2023-05-19T09:27:44.805Z,957.8159
2023-05-19T09:28:46.132Z,957.8096
2023-05-19T09:29:47.423Z,957.7850
2023-05-19T09:30:48.697Z,957.7800
2023-05-19T09:31:50.033Z,957.7678
2023-05-19T09:43:02.731Z,957.8100
2023-05-19T09:44:03.973Z,957.8159
2023-05-19T09:45:05.254Z,957.8118
2023-05-19T09:46:06.782Z,957.8141
2023-05-19T09:47:08.478Z,957.8137
2023-05-19T09:48:09.712Z,957.8182
2023-05-19T09:49:11.030Z,957.8173
2023-05-19T09:50:12.272Z,957.8200
2023-05-19T09:51:13.510Z,957.7896
2023-05-19T09:52:14.777Z,957.8096
2023-05-19T09:53:16.525Z,957.8100
2023-05-19T09:54:17.809Z,957.7964
2023-05-19T09:55:19.091Z,957.8063
2023-05-19T09:56:20.377Z,957.7855
2023-05-19T09:57:21.751Z,957.7809
2023-05-19T09:58:23.037Z,957.7954
2023-05-19T09:59:24.366Z,957.7986
2023-05-19T10:00:25.657Z,957.8091
2023-05-19T10:01:26.990Z,957.8196
2023-05-19T10:02:28.512Z,957.8036
2023-05-19T10:03:29.878Z,957.8041
2023-05-19T10:04:31.465Z,957.7909
2023-05-19T10:05:32.957Z,957.7678
2023-05-19T10:06:34.511Z,957.7723
2023-05-19T10:07:35.753Z,957.7628
2023-05-19T10:08:37.047Z,957.7550
2023-05-19T10:09:38.298Z,957.7568
2023-05-19T10:10:39.657Z,957.7637
2023-05-19T10:11:40.909Z,957.7305
2023-05-19T10:12:42.230Z,957.7109
2023-05-19T10:14:45.045Z,957.7127
2023-05-19T10:15:57.067Z,957.7164
2023-05-19T10:16:48.029Z,957.7285
2023-05-19T10:17:49.475Z,957.7268
2023-05-19T10:18:50.840Z,957.7195
2023-05-19T10:19:52.128Z,957.7245
2023-05-19T10:20:53.537Z,957.7195
2023-05-19T10:21:54.870Z,957.7227
2023-05-19T10:22:56.225Z,957.7227
2023-05-19T10:23:57.519Z,957.7350
2023-05-19T10:28:02.261Z,957.7159
2023-05-19T10:48:25.660Z,957.6223
2023-05-19T10:49:26.965Z,957.6164
2023-05-19T10:50:28.372Z,957.6122
2023-05-19T10:51:29.690Z,957.6341
2023-05-19T10:52:31.014Z,957.6150
2023-05-19T10:54:33.604Z,957.6268
2023-05-19T10:55:35.083Z,957.6136
2023-05-19T10:56:36.781Z,957.6163
2023-05-19T10:57:38.182Z,957.6068
2023-05-19T10:58:39.504Z,957.6159
2023-05-19T10:59:40.889Z,957.6254
2023-05-19T11:00:42.223Z,957.6359
2023-05-19T11:01:43.762Z,957.6581
2023-05-19T11:02:45.091Z,957.6622
2023-05-19T11:03:46.455Z,957.6718
2023-05-19T11:04:50.239Z,957.6891
2023-05-19T11:05:50.336Z,957.6843
2023-05-19T11:06:51.801Z,957.6987
2023-05-19T11:07:53.198Z,957.6782
2023-05-19T11:08:54.535Z,957.6382
2023-05-19T11:09:55.836Z,957.6282
2023-05-19T11:10:57.224Z,957.6086
2023-05-19T11:11:58.528Z,957.5914
2023-05-19T11:12:59.933Z,957.6118
2023-05-19T11:15:02.367Z,957.6082
2023-05-19T11:16:03.753Z,957.6146
2023-05-19T11:17:05.155Z,957.5991
2023-05-19T11:18:06.550Z,957.6168
2023-05-19T11:19:08.017Z,957.5737
2023-05-19T11:20:09.373Z,957.5591
2023-05-19T11:21:10.702Z,957.5618
2023-05-19T11:22:12.027Z,957.5277
2023-05-19T11:23:13.383Z,957.5054
2023-05-19T11:24:14.635Z,957.4877
2023-05-19T11:25:15.957Z,957.4963
2023-05-19T11:26:17.256Z,957.5013
2023-05-19T11:27:18.573Z,957.4959
2023-05-19T11:28:20.139Z,957.5123
2023-05-19T11:29:21.532Z,957.5073
2023-05-19T11:30:22.831Z,957.4987
2023-05-19T11:31:24.147Z,957.5145
2023-05-19T11:32:25.522Z,957.5154
2023-05-19T11:33:26.835Z,957.5018
2023-05-19T11:34:28.155Z,957.5159
2023-05-19T11:36:30.667Z,957.5041
2023-05-19T11:37:31.956Z,957.4896
2023-05-19T11:38:33.263Z,957.4700
2023-05-19T11:39:34.596Z,957.4677
2023-05-19T11:40:35.898Z,957.4500
2023-05-19T11:41:37.277Z,957.4468
2023-05-19T11:42:38.580Z,957.4141
2023-05-19T11:43:39.912Z,957.4246
2023-05-19T11:44:41.300Z,957.3995
2023-05-19T11:46:43.877Z,957.3486
2023-05-19T11:48:00.284Z,957.3568
2023-05-19T11:48:46.966Z,957.3300
2023-05-19T11:50:14.740Z,957.3535
2023-05-19T11:51:16.125Z,957.3514
2023-05-19T11:52:17.519Z,957.3314
2023-05-19T11:53:18.995Z,957.3327
2023-05-19T11:54:20.557Z,957.3141
2023-05-19T11:55:21.956Z,957.3132
2023-05-19T11:56:23.355Z,957.3113
2023-05-19T11:57:24.726Z,957.3146
2023-05-19T11:58:26.072Z,957.3423
2023-05-19T11:59:27.480Z,957.3104
2023-05-19T12:00:28.916Z,957.3200
2023-05-19T12:01:30.285Z,957.3027
2023-05-19T12:02:31.874Z,957.3177
2023-05-19T12:03:33.407Z,957.3237
2023-05-19T12:04:34.864Z,957.3309
2023-05-19T12:05:39.915Z,957.3318
2023-05-19T12:06:38.125Z,957.3490
2023-05-19T12:07:39.636Z,957.3713
2023-05-19T12:08:40.983Z,957.3887
2023-05-19T12:09:42.387Z,957.3514
2023-05-19T12:10:43.802Z,957.3459
2023-05-19T12:11:45.150Z,957.3450
2023-05-19T12:12:46.557Z,957.3286
2023-05-19T12:15:50.453Z,957.3295
2023-05-19T12:16:52.042Z,957.3091
2023-05-19T12:17:53.551Z,957.3314
2023-05-19T12:18:54.951Z,957.3191
2023-05-19T12:19:56.376Z,957.3104
2023-05-19T12:20:58.032Z,957.3132
2023-05-19T12:21:59.444Z,957.3445
2023-05-19T12:23:01.036Z,957.3432
2023-05-19T12:24:02.678Z,957.3577
2023-05-19T12:26:05.281Z,957.3427
2023-05-19T12:27:06.720Z,957.3750
2023-05-19T12:28:08.190Z,957.3400
2023-05-19T12:29:09.704Z,957.2827
2023-05-19T12:30:11.284Z,957.2805
2023-05-19T12:31:12.750Z,957.2609
2023-05-19T12:32:14.146Z,957.2313
2023-05-19T12:33:15.637Z,957.2355
2023-05-19T12:34:17.035Z,957.2032
2023-05-19T12:35:18.553Z,957.2123
2023-05-19T12:37:21.221Z,957.1732
2023-05-19T12:55:43.824Z,957.0409
2023-05-19T12:56:45.186Z,957.0386
2023-05-19T12:57:47.982Z,957.0209
2023-05-19T12:58:47.276Z,957.0162
2023-05-19T12:59:48.601Z,957.0187
2023-05-19T13:00:50.180Z,957.0237
2023-05-19T13:01:51.765Z,957.0063
2023-05-19T13:03:54.478Z,956.9841
2023-05-19T13:04:56.115Z,956.9809
2023-05-19T13:05:57.485Z,956.9736
2023-05-19T13:06:58.958Z,956.9441
2023-05-19T13:08:00.362Z,956.9550
2023-05-19T13:09:01.695Z,956.9313
2023-05-19T13:10:03.081Z,956.9327
2023-05-19T13:11:04.440Z,956.9296
2023-05-19T13:12:05.847Z,956.9291
2023-05-19T13:14:08.374Z,956.9291
2023-05-19T13:15:09.833Z,956.9100
2023-05-19T13:16:11.273Z,956.9036
2023-05-19T13:19:24.986Z,956.9077
2023-05-19T13:20:17.170Z,956.9140
2023-05-19T13:21:18.521Z,956.9413
2023-05-19T13:22:19.853Z,956.9391
2023-05-19T13:23:21.258Z,956.9213
2023-05-19T13:24:22.642Z,956.9086
2023-05-19T13:25:24.026Z,956.9100
2023-05-19T13:26:25.425Z,956.9236
2023-05-19T13:27:26.806Z,956.9118
2023-05-19T13:28:28.221Z,956.8878
2023-05-19T13:29:29.604Z,956.8850
2023-05-19T13:30:31.050Z,956.8773
2023-05-19T13:31:32.635Z,956.8687
2023-05-19T13:32:34.070Z,956.8473
2023-05-19T13:33:35.573Z,956.7982
2023-05-19T13:35:38.432Z,956.8109
2023-05-19T13:36:40.045Z,956.7996
2023-05-19T13:37:41.455Z,956.7882
2023-05-19T13:38:43.006Z,956.7745
2023-05-19T13:39:44.314Z,956.7886
2023-05-19T13:40:45.724Z,956.7918
2023-05-19T13:41:47.189Z,956.7972
2023-05-19T13:42:48.617Z,956.7918
2023-05-19T13:43:49.972Z,956.7977
2023-05-19T13:44:51.529Z,956.7941
2023-05-19T13:45:52.936Z,956.8014
2023-05-19T13:47:55.685Z,956.8022
2023-05-19T13:48:57.046Z,956.7946
2023-05-19T13:49:58.478Z,956.7941
2023-05-19T13:50:59.891Z,956.8100
2023-05-19T13:52:02.167Z,956.8059
2023-05-19T13:53:03.542Z,956.8032
2023-05-19T13:54:05.301Z,956.8052
2023-05-19T13:55:06.695Z,956.7977
2023-05-19T13:56:08.255Z,956.7814
2023-05-19T13:57:09.606Z,956.7900
2023-05-19T13:58:11.048Z,956.7950
2023-05-19T13:59:12.581Z,956.7891
2023-05-19T14:01:15.245Z,956.8077
2023-05-19T14:02:16.676Z,956.8187
2023-05-19T14:03:18.126Z,956.8232
2023-05-19T14:04:19.697Z,956.8268
2023-05-19T14:05:21.522Z,956.8223
2023-05-19T14:06:22.894Z,956.8641
2023-05-19T14:07:24.217Z,956.8632
2023-05-19T14:08:25.650Z,956.8609
2023-05-19T14:09:28.080Z,956.8523
2023-05-19T14:10:27.875Z,956.8433
2023-05-19T14:11:29.219Z,956.8568
2023-05-19T14:12:38.159Z,956.8423
2023-05-19T14:13:36.123Z,956.8410
2023-05-19T14:14:34.543Z,956.8450
2023-05-19T14:15:35.978Z,956.8268
2023-05-19T14:16:38.286Z,956.8223
2023-05-19T14:17:39.889Z,956.8091
2023-05-19T14:18:41.344Z,956.8123
2023-05-19T14:19:42.783Z,956.8123
2023-05-19T14:21:45.381Z,956.8246
2023-05-19T14:22:46.793Z,956.8059
2023-05-19T14:23:48.166Z,956.8237
2023-05-19T14:24:49.491Z,956.8137
2023-05-19T14:25:50.868Z,956.8032
2023-05-19T14:26:52.227Z,956.8100
2023-05-19T14:27:53.655Z,956.8104
2023-05-19T14:28:55.003Z,956.8278
2023-05-19T14:29:56.703Z,956.8223
2023-05-19T14:31:59.865Z,956.8159
2023-05-19T14:33:01.364Z,956.8127
2023-05-19T14:34:02.807Z,956.8177
2023-05-19T14:35:04.178Z,956.8087
2023-05-19T14:36:05.604Z,956.7986
2023-05-19T14:37:06.993Z,956.7936
2023-05-19T14:38:08.384Z,956.7596
2023-05-19T14:39:09.759Z,956.7527
2023-05-19T14:41:12.383Z,956.7628
2023-05-19T14:42:13.789Z,956.7641
2023-05-19T14:43:15.240Z,956.7504
2023-05-19T14:44:16.550Z,956.7513
2023-05-19T14:45:18.897Z,956.7704
2023-05-19T14:46:20.372Z,956.7673
2023-05-19T14:47:21.762Z,956.7709
2023-05-19T14:48:23.162Z,956.7673
2023-05-19T14:49:24.593Z,956.7491
2023-05-19T14:50:27.849Z,956.7446
2023-05-19T14:51:27.776Z,956.7362
2023-05-19T14:52:29.204Z,956.7391
2023-05-19T14:53:30.669Z,956.7377
2023-05-19T14:54:32.053Z,956.7554
2023-05-19T14:55:33.463Z,956.7745